createdAt,value
2023-11-25T00:00:58.328Z,1.85
2023-11-25T00:03:25.775Z,5.80
2023-11-25T00:05:53.271Z,2.90
2023-11-25T00:08:20.672Z,2.92
2023-11-25T00:10:48.766Z,4.18
2023-11-25T00:13:18.949Z,1.42
2023-11-25T00:15:46.228Z,3.92
2023-11-25T00:18:14.295Z,3.55
2023-11-25T00:20:41.776Z,10.63
2023-11-25T00:23:09.150Z,2.28
2023-11-25T00:25:39.559Z,3.63
2023-11-25T00:28:08.614Z,1.63
2023-11-25T00:30:36.217Z,5.00
2023-11-25T00:33:05.716Z,4.43
2023-11-25T00:35:33.469Z,1.90
2023-11-25T00:38:00.752Z,2.17
2023-11-25T00:40:28.642Z,4.47
2023-11-25T00:42:56.130Z,2.45
2023-11-25T00:45:26.664Z,1.95
2023-11-25T00:47:58.091Z,1.95
2023-11-25T00:50:26.557Z,1.98
2023-11-25T00:52:54.255Z,2.38
2023-11-25T00:55:22.083Z,1.88
2023-11-25T00:57:49.691Z,4.88
2023-11-25T01:00:18.166Z,1.83
2023-11-25T01:02:46.326Z,1.35
2023-11-25T01:05:14.572Z,3.33
2023-11-25T01:07:42.117Z,3.08
2023-11-25T01:10:11.530Z,9.70
2023-11-25T01:12:38.927Z,9.05
2023-11-25T01:15:08.765Z,6.32
2023-11-25T01:17:36.121Z,10.63
2023-11-25T01:20:05.263Z,5.05
2023-11-25T01:22:32.666Z,5.70
2023-11-25T01:25:00.257Z,7.43
2023-11-25T01:27:28.499Z,5.10
2023-11-25T01:29:56.119Z,6.90
2023-11-25T01:32:23.751Z,4.30
2023-11-25T01:34:53.748Z,4.38
2023-11-25T01:37:23.164Z,4.07
2023-11-25T01:39:50.824Z,4.43
2023-11-25T01:42:18.672Z,4.35
2023-11-25T01:44:45.972Z,2.83
2023-11-25T01:47:14.554Z,2.95
2023-11-25T01:49:43.563Z,3.58
2023-11-25T01:52:11.506Z,2.83
2023-11-25T01:54:39.523Z,4.20
2023-11-25T01:57:09.219Z,3.35
2023-11-25T01:59:36.991Z,5.88
2023-11-25T02:02:07.382Z,3.58
2023-11-25T02:04:35.323Z,3.88
2023-11-25T02:07:03.030Z,2.55
2023-11-25T02:09:30.496Z,2.22
2023-11-25T02:12:03.127Z,2.45
2023-11-25T02:14:30.882Z,2.10
2023-11-25T02:16:59.032Z,4.53
2023-11-25T02:19:27.714Z,4.13
2023-11-25T02:21:57.289Z,4.20
2023-11-25T02:24:28.173Z,3.28
2023-11-25T02:27:05.978Z,2.53
2023-11-25T02:29:34.467Z,1.88
2023-11-25T02:32:04.050Z,1.73
2023-11-25T02:34:32.247Z,3.72
2023-11-25T02:37:00.004Z,3.00
2023-11-25T02:39:28.940Z,3.55
2023-11-25T02:41:56.503Z,1.55
2023-11-25T02:44:23.939Z,4.45
2023-11-25T02:46:51.552Z,3.08
2023-11-25T02:49:22.636Z,1.73
2023-11-25T02:51:57.423Z,2.30
2023-11-25T02:54:26.002Z,2.85
2023-11-25T02:56:53.430Z,1.90
2023-11-25T02:59:20.893Z,3.05
2023-11-25T03:01:53.952Z,1.70
2023-11-25T03:04:24.988Z,3.30
2023-11-25T03:06:53.172Z,1.85
2023-11-25T03:09:23.122Z,2.00
2023-11-25T03:11:51.630Z,2.00
2023-11-25T03:14:20.644Z,2.22
2023-11-25T03:16:50.790Z,3.50
2023-11-25T03:19:19.707Z,1.88
2023-11-25T03:21:47.072Z,3.08
2023-11-25T03:24:15.369Z,2.25
2023-11-25T03:26:45.208Z,2.20
2023-11-25T03:29:12.582Z,1.73
2023-11-25T03:31:46.986Z,1.90
2023-11-25T03:34:14.497Z,2.65
2023-11-25T03:36:41.864Z,2.53
2023-11-25T03:39:11.234Z,1.33
2023-11-25T03:41:38.710Z,3.80
2023-11-25T03:44:07.805Z,1.95
2023-11-25T03:46:35.385Z,1.92
2023-11-25T03:49:03.182Z,2.35
2023-11-25T03:51:30.731Z,1.77
2023-11-25T03:53:58.101Z,1.85
2023-11-25T03:56:25.446Z,2.38
2023-11-25T03:58:52.892Z,1.67
2023-11-25T04:01:20.589Z,1.40
2023-11-25T04:03:48.050Z,4.20
2023-11-25T04:06:15.698Z,3.55
2023-11-25T04:08:43.001Z,1.52
2023-11-25T04:11:10.949Z,1.60
2023-11-25T04:13:38.885Z,1.75
2023-11-25T04:16:06.418Z,1.90
2023-11-25T04:18:34.751Z,4.13
2023-11-25T04:21:02.694Z,9.57
2023-11-25T04:23:31.927Z,2.30
2023-11-25T04:25:59.838Z,5.10
2023-11-25T04:28:27.490Z,4.18
2023-11-25T04:30:55.165Z,4.90
2023-11-25T04:33:22.603Z,4.20
2023-11-25T04:35:50.080Z,2.90
2023-11-25T04:38:20.094Z,3.78
2023-11-25T04:40:47.332Z,4.20
2023-11-25T04:43:14.599Z,4.82
2023-11-25T04:45:42.238Z,2.22
2023-11-25T04:48:09.756Z,3.95
2023-11-25T04:50:37.046Z,2.50
2023-11-25T04:53:04.320Z,3.40
2023-11-25T04:55:31.609Z,3.55
2023-11-25T04:57:59.141Z,3.38
2023-11-25T05:00:26.480Z,2.25
2023-11-25T05:05:45.072Z,1.55
2023-11-25T05:08:12.383Z,3.50
2023-11-25T05:10:39.529Z,2.38
2023-11-25T05:13:08.300Z,2.55
2023-11-25T05:15:36.762Z,4.60
2023-11-25T05:18:04.220Z,2.08
2023-11-25T05:20:31.526Z,3.58
2023-11-25T05:22:58.900Z,6.38
2023-11-25T05:25:26.381Z,3.45
2023-11-25T05:27:53.700Z,3.92
2023-11-25T05:30:21.566Z,7.05
2023-11-25T05:32:49.254Z,3.13
2023-11-25T05:35:17.554Z,3.30
2023-11-25T05:37:45.947Z,3.10
2023-11-25T05:40:16.349Z,3.45
2023-11-25T05:42:50.097Z,3.55
2023-11-25T05:45:19.799Z,2.13
2023-11-25T05:47:48.333Z,1.73
2023-11-25T05:50:22.413Z,2.85
2023-11-25T05:52:50.793Z,4.47
2023-11-25T05:55:21.054Z,1.63
2023-11-25T05:57:52.488Z,2.22
2023-11-25T06:00:23.149Z,2.65
2023-11-25T06:02:51.019Z,2.72
2023-11-25T06:05:19.214Z,1.98
2023-11-25T06:07:46.840Z,3.70
2023-11-25T06:10:14.708Z,3.40
2023-11-25T06:12:43.193Z,2.20
2023-11-25T06:15:14.939Z,3.22
2023-11-25T06:17:43.249Z,3.97
2023-11-25T06:20:11.541Z,2.78
2023-11-25T06:22:39.594Z,1.63
2023-11-25T06:25:07.434Z,0.93
2023-11-25T06:27:35.053Z,1.90
2023-11-25T06:30:02.842Z,3.00
2023-11-25T06:32:30.585Z,2.35
2023-11-25T06:34:59.671Z,3.90
2023-11-25T06:37:27.532Z,1.67
2023-11-25T06:39:54.981Z,2.03
2023-11-25T06:42:23.686Z,2.17
2023-11-25T06:44:52.569Z,2.10
2023-11-25T06:47:19.972Z,2.72
2023-11-25T06:49:47.678Z,1.73
2023-11-25T06:52:15.161Z,2.35
2023-11-25T06:54:42.992Z,2.75
2023-11-25T06:57:10.446Z,4.55
2023-11-25T06:59:38.300Z,2.95
2023-11-25T07:02:05.866Z,2.30
2023-11-25T07:04:33.158Z,2.28
2023-11-25T07:07:00.596Z,3.97
2023-11-25T07:09:28.221Z,5.32
2023-11-25T07:11:55.579Z,1.95
2023-11-25T07:14:23.253Z,2.58
2023-11-25T07:16:50.638Z,2.28
2023-11-25T07:19:18.694Z,2.55
2023-11-25T07:21:46.520Z,1.92
2023-11-25T07:24:14.292Z,2.63
2023-11-25T07:26:42.860Z,2.80
2023-11-25T07:29:13.676Z,4.00
2023-11-25T07:31:41.228Z,4.32
2023-11-25T07:34:09.546Z,1.88
2023-11-25T07:36:36.985Z,3.50
2023-11-25T07:39:06.455Z,3.38
2023-11-25T07:41:33.664Z,4.70
2023-11-25T07:44:01.330Z,3.92
2023-11-25T07:46:29.188Z,2.47
2023-11-25T07:48:56.569Z,1.98
2023-11-25T07:51:24.750Z,2.22
2023-11-25T07:53:52.150Z,2.30
2023-11-25T07:56:19.600Z,2.80
2023-11-25T07:58:47.725Z,2.47
2023-11-25T08:01:15.163Z,1.35
2023-11-25T08:03:43.360Z,7.25
2023-11-25T08:06:11.712Z,3.00
2023-11-25T08:08:39.057Z,2.80
2023-11-25T08:11:06.733Z,2.85
2023-11-25T08:13:34.151Z,5.63
2023-11-25T08:16:02.498Z,2.58
2023-11-25T08:18:29.803Z,2.10
2023-11-25T08:20:56.998Z,3.42
2023-11-25T08:23:24.425Z,17.13
2023-11-25T08:25:52.615Z,19.55
2023-11-25T08:28:20.008Z,15.80
2023-11-25T08:30:47.311Z,5.03
2023-11-25T08:33:14.610Z,10.75
2023-11-25T08:35:42.564Z,3.70
2023-11-25T08:38:10.610Z,9.55
2023-11-25T08:40:38.719Z,6.95
2023-11-25T08:43:10.007Z,3.97
2023-11-25T08:45:39.296Z,5.68
2023-11-25T08:48:11.092Z,6.03
2023-11-25T08:50:38.800Z,3.45
2023-11-25T08:53:06.551Z,3.30
2023-11-25T08:55:34.051Z,7.13
2023-11-25T08:58:01.495Z,6.25
2023-11-25T09:00:30.675Z,4.00
2023-11-25T09:02:59.109Z,5.70
2023-11-25T09:05:27.566Z,3.05
2023-11-25T09:07:57.257Z,2.83
2023-11-25T09:10:26.682Z,2.40
2023-11-25T09:12:55.150Z,6.43
2023-11-25T09:15:23.676Z,1.90
2023-11-25T09:17:53.176Z,3.30
2023-11-25T09:20:23.262Z,2.55
2023-11-25T09:22:52.892Z,3.03
2023-11-25T09:25:21.329Z,3.67
2023-11-25T09:27:49.031Z,3.25
2023-11-25T09:30:19.293Z,4.25
2023-11-25T09:32:46.779Z,2.83
2023-11-25T09:35:14.843Z,2.75
2023-11-25T09:37:44.273Z,5.38
2023-11-25T09:40:17.810Z,5.40
2023-11-25T09:42:48.531Z,3.33
2023-11-25T09:45:16.824Z,7.10
2023-11-25T09:47:45.986Z,5.22
2023-11-25T09:50:14.953Z,5.15
2023-11-25T09:52:53.083Z,2.85
2023-11-25T09:55:24.844Z,3.40
2023-11-25T09:58:04.577Z,5.70
2023-11-25T10:00:33.994Z,3.00
2023-11-25T10:03:03.193Z,3.10
2023-11-25T10:05:33.353Z,3.80
2023-11-25T10:08:01.453Z,10.68
2023-11-25T10:10:30.361Z,15.40
2023-11-25T10:12:58.046Z,5.45
2023-11-25T10:15:25.293Z,4.85
2023-11-25T10:17:55.988Z,7.97
2023-11-25T10:20:27.261Z,3.78
2023-11-25T10:22:59.039Z,7.28
2023-11-25T10:25:29.883Z,6.47
2023-11-25T10:27:57.681Z,7.40
2023-11-25T10:30:26.893Z,12.40
2023-11-25T10:32:58.376Z,8.10
2023-11-25T10:35:26.328Z,6.05
2023-11-25T10:37:54.027Z,10.32
2023-11-25T10:40:23.802Z,7.78
2023-11-25T10:42:51.433Z,5.07
2023-11-25T10:45:25.467Z,4.43
2023-11-25T10:47:57.583Z,7.90
2023-11-25T10:50:27.103Z,6.25
2023-11-25T10:53:02.517Z,11.98
2023-11-25T10:55:30.358Z,8.68
2023-11-25T10:58:02.298Z,6.55
2023-11-25T11:00:33.232Z,6.85
2023-11-25T11:03:07.065Z,8.13
2023-11-25T11:05:42.829Z,8.98
2023-11-25T11:08:33.170Z,7.10
2023-11-25T11:11:13.479Z,15.35
2023-11-25T11:13:46.256Z,14.52
2023-11-25T11:16:51.584Z,7.68
2023-11-25T11:19:25.811Z,8.32
2023-11-25T11:21:57.060Z,13.17
2023-11-25T11:24:45.948Z,11.23
2023-11-25T11:27:38.374Z,14.18
2023-11-25T11:30:11.526Z,14.27
2023-11-25T11:32:43.932Z,10.25
2023-11-25T11:35:13.768Z,10.85
2023-11-25T11:37:50.114Z,12.65
2023-11-25T11:40:23.787Z,10.73
2023-11-25T11:42:51.578Z,4.40
2023-11-25T11:45:24.164Z,8.00
2023-11-25T11:47:57.392Z,8.75
2023-11-25T11:50:30.921Z,13.40
2023-11-25T11:53:16.826Z,28.63
2023-11-25T11:55:55.138Z,16.08
2023-11-25T11:58:26.851Z,10.25
2023-11-25T12:01:04.115Z,13.35
2023-11-25T12:03:36.202Z,7.95
2023-11-25T12:06:06.884Z,9.73
2023-11-25T12:08:36.169Z,18.30
2023-11-25T12:11:06.556Z,9.18
2023-11-25T12:13:40.460Z,9.82
2023-11-25T12:16:09.920Z,10.68
2023-11-25T12:18:38.046Z,9.45
2023-11-25T12:21:07.049Z,8.73
2023-11-25T12:26:07.853Z,3.85
2023-11-25T12:28:46.309Z,6.57
2023-11-25T12:31:15.359Z,10.45
2023-11-25T12:33:43.008Z,4.97
2023-11-25T12:36:10.500Z,8.63
2023-11-25T12:38:38.912Z,4.68
2023-11-25T12:41:14.197Z,10.07
2023-11-25T12:44:13.235Z,6.32
2023-11-25T12:46:43.682Z,12.80
2023-11-25T12:49:24.710Z,4.90
2023-11-25T12:51:53.907Z,5.47
2023-11-25T12:54:21.783Z,4.35
2023-11-25T12:56:55.969Z,5.43
2023-11-25T12:59:29.976Z,4.80
2023-11-25T13:02:10.357Z,3.20
2023-11-25T13:04:48.030Z,5.65
2023-11-25T13:07:36.018Z,10.77
2023-11-25T13:10:05.433Z,4.30
2023-11-25T13:12:34.641Z,9.05
2023-11-25T13:15:04.768Z,5.15
2023-11-25T13:17:32.425Z,2.92
2023-11-25T13:19:59.925Z,4.20
2023-11-25T13:22:27.408Z,5.38
2023-11-25T13:24:54.809Z,6.32
2023-11-25T13:27:22.347Z,4.43
2023-11-25T13:29:49.852Z,16.42
2023-11-25T13:32:17.888Z,18.00
2023-11-25T13:34:45.870Z,7.55
2023-11-25T13:37:14.019Z,7.43
2023-11-25T13:39:41.609Z,7.90
2023-11-25T13:42:09.209Z,4.90
2023-11-25T13:44:37.033Z,7.22
2023-11-25T13:47:04.713Z,10.68
2023-11-25T13:49:33.949Z,9.77
2023-11-25T13:52:02.504Z,4.25
2023-11-25T13:54:30.439Z,4.63
2023-11-25T13:56:58.165Z,8.50
2023-11-25T13:59:25.873Z,5.07
2023-11-25T14:01:53.313Z,4.63
2023-11-25T14:04:23.005Z,6.05
2023-11-25T14:06:50.486Z,5.72
2023-11-25T14:09:19.094Z,12.50
2023-11-25T14:11:47.131Z,3.85
2023-11-25T14:14:14.899Z,8.18
2023-11-25T14:16:49.518Z,9.55
2023-11-25T14:19:19.038Z,5.45
2023-11-25T14:21:46.662Z,6.60
2023-11-25T14:24:14.343Z,4.57
2023-11-25T14:26:41.757Z,3.28
2023-11-25T14:29:12.460Z,3.47
2023-11-25T14:31:39.988Z,5.53
2023-11-25T14:34:07.445Z,4.97
2023-11-25T14:36:34.795Z,3.67
2023-11-25T14:39:02.207Z,5.72
2023-11-25T14:41:29.710Z,4.10
2023-11-25T14:43:57.320Z,4.32
2023-11-25T14:46:24.785Z,7.28
2023-11-25T14:48:52.215Z,14.05
2023-11-25T14:51:19.425Z,13.27
2023-11-25T14:53:46.806Z,17.95
2023-11-25T14:56:14.247Z,6.45
2023-11-25T14:58:41.797Z,14.60
2023-11-25T15:01:09.438Z,6.68
2023-11-25T15:03:40.632Z,16.73
2023-11-25T15:06:08.972Z,24.02
2023-11-25T15:08:37.883Z,17.23
2023-11-25T15:11:06.931Z,13.98
2023-11-25T15:13:34.343Z,13.68
2023-11-25T15:16:02.103Z,15.52
2023-11-25T15:18:30.268Z,24.75
2023-11-25T15:21:02.878Z,20.33
2023-11-25T15:23:33.599Z,11.18
2023-11-25T15:26:05.839Z,15.95
2023-11-25T15:28:33.388Z,12.75
2023-11-25T15:31:01.001Z,18.10
2023-11-25T15:33:31.149Z,22.85
2023-11-25T15:35:58.854Z,18.77
2023-11-25T15:38:26.488Z,17.98
2023-11-25T15:40:55.893Z,20.58
2023-11-25T15:43:23.782Z,16.17
2023-11-25T15:45:51.419Z,12.73
2023-11-25T15:48:18.956Z,12.75
2023-11-25T15:50:46.217Z,22.17
2023-11-25T15:53:14.341Z,14.35
2023-11-25T15:55:42.027Z,12.23
2023-11-25T15:58:09.381Z,13.18
2023-11-25T16:00:36.695Z,17.48
2023-11-25T16:03:04.293Z,13.32
2023-11-25T16:05:32.272Z,8.68
2023-11-25T16:08:02.542Z,10.60
2023-11-25T16:10:32.628Z,9.40
2023-11-25T16:13:04.012Z,11.40
2023-11-25T16:15:32.123Z,14.93
2023-11-25T16:18:00.566Z,22.27
2023-11-25T16:20:30.820Z,10.00
2023-11-25T16:22:58.239Z,8.00
2023-11-25T16:25:29.085Z,6.90
2023-11-25T16:27:56.577Z,9.52
2023-11-25T16:30:25.198Z,12.05
2023-11-25T16:32:52.996Z,5.65
2023-11-25T16:35:21.012Z,5.07
2023-11-25T16:37:51.254Z,7.25
2023-11-25T16:40:23.993Z,15.95
2023-11-25T16:42:51.198Z,7.03
2023-11-25T16:45:19.106Z,12.30
2023-11-25T16:47:46.370Z,20.42
2023-11-25T16:50:14.728Z,9.52
2023-11-25T16:52:42.199Z,9.23
2023-11-25T16:55:09.952Z,5.38
2023-11-25T16:57:38.052Z,15.48
2023-11-25T17:00:07.729Z,8.38
2023-11-25T17:02:35.484Z,4.25
2023-11-25T17:05:03.226Z,9.48
2023-11-25T17:07:34.252Z,14.43
2023-11-25T17:10:05.359Z,18.98
2023-11-25T17:12:33.461Z,8.95
2023-11-25T17:15:01.499Z,8.88
2023-11-25T17:17:29.049Z,12.48
2023-11-25T17:19:57.717Z,8.68
2023-11-25T17:22:25.463Z,11.25
2023-11-25T17:24:52.997Z,8.70
2023-11-25T17:27:21.593Z,8.57
2023-11-25T17:29:59.441Z,7.65
2023-11-25T17:32:26.891Z,6.57
2023-11-25T17:34:54.498Z,8.35
2023-11-25T17:37:22.188Z,9.43
2023-11-25T17:39:49.802Z,7.45
2023-11-25T17:42:17.229Z,9.55
2023-11-25T17:44:44.702Z,6.97
2023-11-25T17:47:12.301Z,10.43
2023-11-25T17:49:39.935Z,5.53
2023-11-25T17:52:09.425Z,7.57
2023-11-25T17:54:37.011Z,6.40
2023-11-25T17:57:04.769Z,5.85
2023-11-25T17:59:33.589Z,7.00
2023-11-25T18:02:01.262Z,5.75
2023-11-25T18:04:28.646Z,10.23
2023-11-25T18:06:56.124Z,6.45
2023-11-25T18:09:25.404Z,6.18
2023-11-25T18:11:53.058Z,12.45
2023-11-25T18:14:23.518Z,7.15
2023-11-25T18:16:50.932Z,7.55
2023-11-25T18:19:19.133Z,7.13
2023-11-25T18:21:47.299Z,7.57
2023-11-25T18:24:14.701Z,7.18
2023-11-25T18:26:42.289Z,9.98
2023-11-25T18:29:09.839Z,21.30
2023-11-25T18:31:37.438Z,10.57
2023-11-25T18:34:05.196Z,11.40
2023-11-25T18:36:32.513Z,11.38
2023-11-25T18:39:02.273Z,15.65
2023-11-25T18:41:29.609Z,14.75
2023-11-25T18:43:57.063Z,14.98
2023-11-25T18:46:25.902Z,17.42
2023-11-25T18:48:53.755Z,13.75
2023-11-25T18:51:21.286Z,19.30
2023-11-25T18:53:48.717Z,15.73
2023-11-25T18:56:16.279Z,13.57
2023-11-25T18:58:43.934Z,17.38
2023-11-25T19:01:11.554Z,17.15
2023-11-25T19:03:39.024Z,18.02
2023-11-25T19:06:06.832Z,11.80
2023-11-25T19:08:34.848Z,16.90
2023-11-25T19:11:02.278Z,20.50
2023-11-25T19:13:29.851Z,16.95
2023-11-25T19:15:58.424Z,21.63
2023-11-25T19:18:25.954Z,14.38
2023-11-25T19:20:53.429Z,16.45
2023-11-25T19:23:21.505Z,17.17
2023-11-25T19:25:49.311Z,19.40
2023-11-25T19:28:16.748Z,26.38
2023-11-25T19:30:44.360Z,19.92
2023-11-25T19:33:11.986Z,26.33
2023-11-25T19:35:39.454Z,36.50
2023-11-25T19:38:08.516Z,28.25
2023-11-25T19:40:36.205Z,27.13
2023-11-25T19:43:03.528Z,29.40
2023-11-25T19:45:31.041Z,26.73
2023-11-25T19:48:01.860Z,26.20
2023-11-25T19:50:29.358Z,23.25
2023-11-25T19:52:59.659Z,23.90
2023-11-25T19:55:27.129Z,20.88
2023-11-25T19:57:56.927Z,24.83
2023-11-25T20:00:25.365Z,22.50
2023-11-25T20:02:52.935Z,21.17
2023-11-25T20:05:21.510Z,21.17
2023-11-25T20:07:49.641Z,17.13
2023-11-25T20:10:20.684Z,18.90
2023-11-25T20:12:48.949Z,18.45
2023-11-25T20:15:19.712Z,16.00
2023-11-25T20:17:47.330Z,26.17
2023-11-25T20:20:15.809Z,17.77
2023-11-25T20:22:44.251Z,22.10
2023-11-25T20:25:11.971Z,22.58
2023-11-25T20:27:39.634Z,22.60
2023-11-25T20:30:07.838Z,22.88
2023-11-25T20:32:37.900Z,35.13
2023-11-25T20:35:05.904Z,27.90
2023-11-25T20:37:33.972Z,21.98
2023-11-25T20:40:02.278Z,24.13
2023-11-25T20:42:30.028Z,26.33
2023-11-25T20:44:57.623Z,26.20
2023-11-25T20:47:25.097Z,25.30
2023-11-25T20:49:52.676Z,27.77
2023-11-25T20:52:20.186Z,34.42
2023-11-25T20:54:47.498Z,33.08
2023-11-25T20:57:15.617Z,37.83
2023-11-25T20:59:43.555Z,32.15
2023-11-25T21:02:12.003Z,28.08
2023-11-25T21:04:39.754Z,28.70
2023-11-25T21:07:07.371Z,28.67
2023-11-25T21:09:34.862Z,28.48
2023-11-25T21:12:02.217Z,25.17
2023-11-25T21:14:30.529Z,33.70
2023-11-25T21:16:59.861Z,27.17
2023-11-25T21:19:27.670Z,18.35
2023-11-25T21:21:55.271Z,24.95
2023-11-25T21:24:22.799Z,22.42
2023-11-25T21:26:50.226Z,20.80
2023-11-25T21:29:17.809Z,24.63
2023-11-25T21:31:48.142Z,21.85
2023-11-25T21:34:16.979Z,18.08
2023-11-25T21:36:46.484Z,19.13
2023-11-25T21:39:15.697Z,24.05
2023-11-25T21:41:43.285Z,24.98
2023-11-25T21:44:10.848Z,19.08
2023-11-25T21:46:38.327Z,20.08
2023-11-25T21:49:05.809Z,19.75
2023-11-25T21:51:36.286Z,19.52
2023-11-25T21:54:03.955Z,20.00
2023-11-25T21:56:32.858Z,21.85
2023-11-25T21:59:00.628Z,17.80
2023-11-25T22:01:28.094Z,17.20
2023-11-25T22:03:55.836Z,18.58
2023-11-25T22:06:25.315Z,18.48
2023-11-25T22:08:52.753Z,18.15
2023-11-25T22:11:24.762Z,16.38
2023-11-25T22:13:52.813Z,15.38
2023-11-25T22:16:20.786Z,19.30
2023-11-25T22:18:49.144Z,14.77
2023-11-25T22:21:21.554Z,14.98
2023-11-25T22:23:49.486Z,13.63
2023-11-25T22:26:35.630Z,13.00
2023-11-25T22:29:05.561Z,13.10
2023-11-25T22:31:33.369Z,14.13
2023-11-25T22:34:00.661Z,9.63
2023-11-25T22:36:29.141Z,13.45
2023-11-25T22:38:58.339Z,9.93
2023-11-25T22:41:25.939Z,11.20
2023-11-25T22:43:55.944Z,8.45
2023-11-25T22:46:24.719Z,14.85
2023-11-25T22:48:53.455Z,10.55
2023-11-25T22:51:24.621Z,9.93
2023-11-25T22:53:52.791Z,8.07
2023-11-25T22:56:20.315Z,13.85
2023-11-25T22:58:47.810Z,9.82
2023-11-25T23:01:16.148Z,8.57
2023-11-25T23:03:45.511Z,7.05
2023-11-25T23:06:13.333Z,11.18
2023-11-25T23:08:45.283Z,13.48
2023-11-25T23:11:12.853Z,12.80
2023-11-25T23:13:40.343Z,12.35
2023-11-25T23:16:08.610Z,11.75
2023-11-25T23:18:35.948Z,11.50
2023-11-25T23:21:03.718Z,9.07
2023-11-25T23:23:38.235Z,10.48
2023-11-25T23:26:10.873Z,9.90
2023-11-25T23:28:38.655Z,10.68
2023-11-25T23:31:06.147Z,9.57
2023-11-25T23:33:33.592Z,7.97
2023-11-25T23:36:01.287Z,9.30
2023-11-25T23:38:28.878Z,11.48
2023-11-25T23:40:56.420Z,8.02
2023-11-25T23:43:23.899Z,7.80
2023-11-25T23:45:52.119Z,6.55
2023-11-25T23:48:22.032Z,6.53
2023-11-25T23:50:49.650Z,5.97
2023-11-25T23:53:18.775Z,5.47
2023-11-25T23:55:46.219Z,7.47
2023-11-25T23:58:14.268Z,9.68
